< < Back
Terminal Aerodrome Forecast


Current Version              Previous Versions:   1  2  3  4  5  6  7  8  9  

Terminal Aerodrome Forecast

762
FTUS42 KFFC 222046 AAA
TAFPDK
TAF AMD
KPDK 222046Z 2221/2318 10008KT 2SM -RA BR OVC004
     FM230300 09008KT 2SM -DZ BR OVC004
     FM230800 10008KT 1/2SM -DZ FG OVC002
     FM231500 11007KT 2SM -SHRA BR OVC008=

Latest METAR

660
SAUS70 KWBC 222200 RRL
MTRPDK
METAR KPDK 222153Z 08005KT 2SM -RA BR OVC006 06/06 A2992 RMK AO2 RAB01
CIG 003V008 SLP139 P0006 T00610056


USA.gov is the U.S. government's official web portal to all federal, state and local government web resources and services.